Etusivu
METAR-TAF:

METAR-TAF

Lentoasemat :

Ghardaïa, Algeria

Leveyspiiri: 32-23N, Pituuspiiri: 003-49E, korkeus merenpinnasta: 450 m

Tämänhetkinen sää

Tämä raportti tehtiin 54 minuuttia sitten, kello 11.00 UTC
Tuuli 4 kn lounaasta
Lämpötila 28°C
Kosteus 14%
Ilmanpaine 1011 hPa
Näkyvyys 10 km tai enemmän
ei pilviä alle 1500 m:ssä eikä cumulonimbus-pilviä

METAR: DAUG 011100Z 22004KT CAVOK 28/M02 Q1011

Aika: 12:54 (11:54 UTC)

Sääennuste

Tämä raportti tehtiin 54 minuuttia sitten, kello 11.00 UTC
Ennuste voimassa 01. päivästä klo 12 UTC - 02. päivään klo 12 UTC
Tuuli 10 kn lounaasta
Näkyvyys 10 km tai enemmän
ei pilviä alle 1500 m:ssä eikä cumulonimbus-pilviä
Todennäköisyys 40%
01. päivästä klo 12 UTC - 01. päivään klo 18 UTC
Tuuli 20 kn lounaasta
Näkyvyys: 4000 m
matalaa hiekkatuisku
Tulossa
02. päivästä klo 00 UTC - 02. päivään klo 03 UTC
Tuuli 8 kn pohjoisesta

TAF: DAUG 011100Z 0112/0212 22010KT CAVOK PROB40 0112/0118 22020KT 4000 DRSA BECMG 0200/0203 01008KT

Säähavainnot ja -ennusteet yli 4000 lentoasemalta (METAR- ja TAF-raportit).

Käytössä olevat sääasemat on merkitty karttaan keltaisilla ja punaisilla pisteillä.

Aseta hiiri pisteen päälle nähdäksesi sääaseman nimen.

Klikkaa sitten nähdäksesi säähavainnot ja -ennusteet.

Kartan vaihtaminen: klikkaa mustalla rastilla varustettuja vihreitä pisteitä, niin voit zoomata sisään; viivalla varustettua vihreää pistettä, niin voit zoomata ulos tai vihreitä nuolia, niin pääset viereisille kartoille.


METAR-TAF: